Almora, Minnesota
Current Conditions -  °F | °C
As of 12:35 AM on Monday 24 Nov 2014 (Local Time) from KADC Reporting Station
Overcast Overcast  
Wind Chill:   Ceiling: 900
Heat Index: 18°   Visibility: 10mi
Dew Point: 16°   Wind: 15mph
Humidity: 93%   Direction: 310°NW
Pressure: 29.44"   Gusts: 23mph
Location:  46.3245°N, 95.3401°W
Report Text: KADC 240635Z AUTO 31013G20KT 10SM OVC009 M08/M09 A2944 RMK AO2
Loading
Personal Weather Stations






























Interactive Weather Map New forecast layout! Learn more

10-Day Weather Forecast

Advertisements
Track Severe Weather on mobile